Time;durP1;ratioP1;P1;durP2;ratioP2;P2;SDS_P1;SDS_P2;PMS_P1;PMS_P2;Temp;Humidity;BMP_temperature;BMP_pressure;BME280_temperature;BME280_humidity;BME280_pressure;Samples;Min_cycle;Max_cycle;Signal;HPM_P1;HPM_P2
2022/08/19 00:00:14;;;;;;;14.90;12.00;;;;;;;22.85;67.90;97397.91;105495;1282;25524;-85
2022/08/19 00:03:03;;;;;;;13.10;11.70;;;;;;;22.83;67.86;97401.13;105427;1282;22571;-85
2022/08/19 00:05:31;;;;;;;12.10;11.00;;;;;;;22.81;68.04;97399.56;105570;1282;22573;-85
2022/08/19 00:07:59;;;;;;;12.60;11.40;;;;;;;22.80;68.27;97397.68;105552;1282;22915;-85
2022/08/19 00:10:28;;;;;;;16.60;11.50;;;;;;;22.80;68.16;97394.54;105609;1282;24027;-85
2022/08/19 00:12:56;;;;;;;12.30;11.10;;;;;;;22.79;68.30;97393.35;105615;1282;22676;-85
2022/08/19 00:15:24;;;;;;;12.70;11.20;;;;;;;22.77;68.20;97392.58;105435;1282;22597;-86
2022/08/19 00:17:52;;;;;;;13.30;12.00;;;;;;;22.74;68.34;97392.17;105547;1282;22761;-86
2022/08/19 00:20:21;;;;;;;12.70;11.40;;;;;;;22.70;68.37;97395.23;105406;1283;22563;-85
2022/08/19 00:22:50;;;;;;;13.70;11.70;;;;;;;22.68;68.45;97396.33;105555;1282;24304;-86
2022/08/19 00:25:18;;;;;;;13.40;12.10;;;;;;;22.69;68.59;97396.64;105499;1283;22608;-85
2022/08/19 00:27:58;;;;;;;13.10;11.80;;;;;;;22.70;68.73;97398.21;105597;1282;22576;-85
2022/08/19 00:30:29;;;;;;;13.10;11.90;;;;;;;22.68;68.79;97394.05;105617;1282;22668;-83
2022/08/19 00:32:58;;;;;;;15.90;11.90;;;;;;;22.64;68.98;97392.48;105576;1282;22691;-85
2022/08/19 00:35:27;;;;;;;13.10;11.80;;;;;;;22.61;68.74;97390.44;105580;1282;22562;-84
2022/08/19 00:37:55;;;;;;;13.30;11.70;;;;;;;22.59;68.59;97392.88;105562;1282;24297;-84
2022/08/19 00:40:25;;;;;;;15.50;10.90;;;;;;;22.59;68.72;97394.73;105551;1282;24271;-84
2022/08/19 00:42:53;;;;;;;13.00;11.80;;;;;;;22.56;68.80;97396.23;105638;1282;23182;-84
2022/08/19 00:45:25;;;;;;;12.30;11.00;;;;;;;22.52;69.00;97393.33;105561;1282;25262;-84
2022/08/19 00:47:53;;;;;;;16.10;12.10;;;;;;;22.50;68.85;97389.80;105417;1282;25297;-85
2022/08/19 00:50:22;;;;;;;13.00;11.70;;;;;;;22.41;69.09;97390.64;105586;1282;22577;-85
2022/08/19 00:52:51;;;;;;;14.50;11.30;;;;;;;22.32;68.99;97383.48;105412;1282;23985;-83
2022/08/19 00:55:24;;;;;;;12.20;11.00;;;;;;;22.31;69.54;97381.52;105528;1282;24223;-84
2022/08/19 00:57:56;;;;;;;12.10;10.90;;;;;;;22.34;69.99;97376.52;105514;1282;22575;-83
2022/08/19 01:00:26;;;;;;;12.10;10.90;;;;;;;22.38;69.99;97376.12;105477;1282;23204;-85
2022/08/19 01:02:55;;;;;;;12.90;11.50;;;;;;;22.40;69.81;97371.90;105570;1282;22546;-84
2022/08/19 01:05:27;;;;;;;12.60;11.40;;;;;;;22.42;69.79;97370.41;105622;1282;25449;-86
2022/08/19 01:07:58;;;;;;;12.80;11.40;;;;;;;22.41;69.78;97366.95;105721;1282;22708;-84
2022/08/19 01:10:30;;;;;;;12.30;11.10;;;;;;;22.42;69.73;97367.90;105632;1282;22565;-84
2022/08/19 01:13:04;;;;;;;12.40;10.40;;;;;;;22.44;69.93;97366.01;105615;1282;22541;-83
2022/08/19 01:15:40;;;;;;;11.60;10.50;;;;;;;22.47;69.83;97366.33;105299;1282;22539;-87
2022/08/19 01:18:12;;;;;;;14.60;12.00;;;;;;;22.48;69.77;97364.77;105589;1281;22748;-84
2022/08/19 01:20:42;;;;;;;13.90;11.60;;;;;;;22.47;69.85;97361.86;105628;1282;22541;-84
2022/08/19 01:23:11;;;;;;;16.80;11.00;;;;;;;22.45;69.85;97359.59;105637;1282;23834;-84
2022/08/19 01:25:50;;;;;;;16.10;12.50;;;;;;;22.44;69.80;97359.59;105525;1282;24235;-84
2022/08/19 01:28:27;;;;;;;12.90;11.50;;;;;;;22.42;69.80;97359.05;105397;1282;25294;-84
2022/08/19 01:31:11;;;;;;;12.70;10.90;;;;;;;22.42;69.61;97357.94;105484;1282;22538;-84
2022/08/19 01:33:56;;;;;;;14.10;11.50;;;;;;;22.41;69.90;97347.59;105490;1282;22704;-84
2022/08/19 01:36:33;;;;;;;16.10;11.60;;;;;;;22.41;70.28;97350.33;105351;1284;22713;-84
2022/08/19 01:39:05;;;;;;;14.00;11.70;;;;;;;22.39;70.07;97354.80;105470;1282;24275;-84
2022/08/19 01:41:34;;;;;;;16.20;11.50;;;;;;;22.37;70.04;97362.32;105495;1282;25423;-84
2022/08/19 01:44:07;;;;;;;12.70;11.30;;;;;;;22.33;69.97;97359.88;105379;1283;22710;-85
2022/08/19 01:46:48;;;;;;;12.80;11.50;;;;;;;22.31;69.85;97367.34;105400;1282;22556;-84
2022/08/19 01:49:19;;;;;;;12.40;10.20;;;;;;;22.32;69.87;97359.41;105422;1282;23300;-85
2022/08/19 01:51:49;;;;;;;12.30;10.30;;;;;;;22.34;70.10;97360.66;105612;1282;25253;-85
2022/08/19 01:54:18;;;;;;;12.50;10.80;;;;;;;22.34;70.06;97359.18;105581;1282;24316;-83
2022/08/19 01:57:08;;;;;;;14.00;11.00;;;;;;;22.31;69.90;97361.60;105425;1282;22545;-83
2022/08/19 01:59:37;;;;;;;13.00;11.70;;;;;;;22.18;69.92;97357.49;105415;1282;25329;-84
2022/08/19 02:02:08;;;;;;;11.90;10.80;;;;;;;22.10;70.12;97353.14;105398;1282;24216;-84
2022/08/19 02:04:40;;;;;;;12.70;11.10;;;;;;;22.06;70.46;97352.89;105482;1282;22597;-84
2022/08/19 02:07:08;;;;;;;16.60;10.80;;;;;;;22.06;70.41;97346.79;105496;1282;22553;-84
2022/08/19 02:09:36;;;;;;;12.40;11.20;;;;;;;22.06;70.37;97334.86;105458;1282;22707;-84
2022/08/19 02:12:07;;;;;;;12.60;11.30;;;;;;;22.05;70.48;97337.05;105471;1282;25399;-83
2022/08/19 02:14:36;;;;;;;12.60;11.00;;;;;;;22.06;70.63;97334.63;105524;1282;24130;-83
2022/08/19 02:17:04;;;;;;;12.60;11.40;;;;;;;22.09;70.30;97332.27;105507;1282;22771;-84
2022/08/19 02:19:32;;;;;;;13.70;12.10;;;;;;;22.07;70.41;97335.89;105532;1282;22568;-83
2022/08/19 02:22:00;;;;;;;12.60;11.40;;;;;;;22.08;70.45;97337.05;105339;1284;24305;-83
2022/08/19 02:24:28;;;;;;;12.90;11.50;;;;;;;22.07;70.43;97335.96;105496;1282;23076;-83
2022/08/19 02:26:58;;;;;;;12.00;10.80;;;;;;;22.02;70.53;97336.19;105498;1282;22541;-84
2022/08/19 02:29:26;;;;;;;13.60;12.20;;;;;;;22.00;70.68;97335.70;105328;1284;24465;-84
2022/08/19 02:31:54;;;;;;;13.90;12.40;;;;;;;21.96;70.54;97338.36;105499;1282;22553;-84
2022/08/19 02:34:24;;;;;;;12.40;11.00;;;;;;;21.91;70.57;97336.08;105535;1281;22526;-84
2022/08/19 02:36:52;;;;;;;14.10;11.60;;;;;;;21.85;70.62;97336.75;105529;1282;25347;-84
2022/08/19 02:39:20;;;;;;;14.70;13.00;;;;;;;21.82;70.93;97337.84;105513;1282;24114;-84
2022/08/19 02:41:49;;;;;;;15.20;13.80;;;;;;;21.82;71.26;97339.64;105524;1282;22694;-84
2022/08/19 02:44:17;;;;;;;16.70;14.40;;;;;;;21.80;70.85;97347.31;105333;1285;22712;-86
2022/08/19 02:46:59;;;;;;;15.50;14.00;;;;;;;21.71;70.94;97347.14;105497;1282;22564;-85
2022/08/19 02:49:27;;;;;;;15.20;13.60;;;;;;;21.63;71.10;97349.60;105561;1282;22545;-85
2022/08/19 02:51:55;;;;;;;15.20;12.30;;;;;;;21.59;71.41;97350.84;105528;1282;24271;-84
2022/08/19 02:54:23;;;;;;;15.10;11.90;;;;;;;21.61;71.25;97351.55;105387;1283;22579;-85
2022/08/19 02:56:52;;;;;;;13.40;11.90;;;;;;;21.61;71.45;97347.55;105521;1281;25380;-85
2022/08/19 02:59:20;;;;;;;14.70;12.10;;;;;;;21.61;71.61;97349.43;105555;1282;22574;-85
2022/08/19 03:01:49;;;;;;;13.90;12.40;;;;;;;21.56;71.53;97348.08;105572;1282;22624;-85
2022/08/19 03:04:19;;;;;;;14.00;12.70;;;;;;;21.51;71.61;97343.42;105581;1282;25341;-85
2022/08/19 03:06:47;;;;;;;13.30;12.10;;;;;;;21.46;71.78;97343.96;105553;1282;22588;-85
2022/08/19 03:09:18;;;;;;;13.40;11.80;;;;;;;21.48;72.00;97341.08;105545;1282;22710;-85
2022/08/19 03:11:46;;;;;;;14.50;11.80;;;;;;;21.51;71.92;97345.48;105566;1282;22571;-85
2022/08/19 03:14:17;;;;;;;12.80;11.50;;;;;;;21.49;72.04;97340.53;105363;1284;25345;-85
2022/08/19 03:16:48;;;;;;;12.30;11.00;;;;;;;21.48;72.01;97340.30;105510;1283;22555;-85
2022/08/19 03:19:19;;;;;;;12.70;11.40;;;;;;;21.49;72.34;97340.37;105418;1283;22577;-84
2022/08/19 03:21:47;;;;;;;13.00;11.80;;;;;;;21.50;72.47;97343.75;105427;1283;23348;-88
2022/08/19 03:24:17;;;;;;;13.70;12.30;;;;;;;21.51;72.28;97347.75;105569;1282;22543;-84
2022/08/19 03:26:48;;;;;;;12.60;11.40;;;;;;;21.53;72.36;97350.41;105528;1282;24102;-84
2022/08/19 03:29:17;;;;;;;13.50;11.80;;;;;;;21.57;72.72;97359.76;105614;1282;24415;-84
2022/08/19 03:32:00;;;;;;;13.60;12.30;;;;;;;21.57;72.61;97351.77;105449;1282;22563;-84
2022/08/19 03:34:34;;;;;;;20.30;13.30;;;;;;;21.56;72.93;97349.89;105488;1282;22536;-84
2022/08/19 03:37:09;;;;;;;13.30;11.90;;;;;;;21.53;72.83;97353.77;105489;1282;25462;-85
2022/08/19 03:39:38;;;;;;;13.60;11.80;;;;;;;21.51;72.78;97359.80;105495;1282;24298;-85
2022/08/19 03:42:07;;;;;;;13.70;11.80;;;;;;;21.53;73.09;97364.12;105503;1282;23906;-84
2022/08/19 03:44:55;;;;;;;13.30;11.30;;;;;;;21.58;73.16;97364.30;105458;1282;25244;-85
2022/08/19 03:47:23;;;;;;;13.00;11.60;;;;;;;21.63;73.35;97358.45;105505;1282;24421;-85
2022/08/19 03:49:51;;;;;;;12.60;11.30;;;;;;;21.67;73.16;97361.99;105532;1282;22567;-85
2022/08/19 03:52:19;;;;;;;14.50;12.30;;;;;;;21.69;73.37;97355.73;105447;1282;22999;-84
2022/08/19 03:54:47;;;;;;;13.40;11.60;;;;;;;21.69;73.08;97347.74;105507;1282;23606;-85
2022/08/19 03:57:15;;;;;;;14.20;11.80;;;;;;;21.71;72.96;97338.81;105483;1282;22558;-85
2022/08/19 03:59:43;;;;;;;13.30;10.50;;;;;;;21.74;73.03;97328.97;105536;1282;22868;-84
2022/08/19 04:02:13;;;;;;;11.80;10.60;;;;;;;21.80;73.06;97328.59;105461;1282;22538;-87
2022/08/19 04:04:43;;;;;;;14.10;10.60;;;;;;;21.85;72.83;97334.09;105329;1282;25357;-85
2022/08/19 04:07:15;;;;;;;12.50;11.30;;;;;;;21.87;72.68;97333.71;105367;1282;22563;-85
2022/08/19 04:09:44;;;;;;;12.30;11.00;;;;;;;21.87;72.69;97338.41;105472;1282;22626;-85
2022/08/19 04:12:11;;;;;;;13.30;12.00;;;;;;;21.86;72.39;97343.66;105492;1282;25341;-84
2022/08/19 04:14:40;;;;;;;12.00;10.80;;;;;;;21.85;72.44;97357.67;105453;1282;24286;-84
2022/08/19 04:17:08;;;;;;;16.00;11.30;;;;;;;21.86;72.41;97363.09;105550;1282;24268;-83
2022/08/19 04:19:36;;;;;;;11.90;10.70;;;;;;;21.83;72.35;97372.09;105243;1283;22580;-83
2022/08/19 04:22:04;;;;;;;12.20;10.90;;;;;;;21.84;72.36;97372.73;105505;1282;24242;-84
2022/08/19 04:24:35;;;;;;;14.90;11.20;;;;;;;21.83;72.51;97372.25;105505;1282;23337;-84
2022/08/19 04:27:05;;;;;;;12.60;11.40;;;;;;;21.81;72.44;97373.17;105479;1282;22576;-84
2022/08/19 04:29:34;;;;;;;12.30;10.90;;;;;;;21.80;72.47;97367.77;105474;1282;25333;-84
2022/08/19 04:32:02;;;;;;;12.40;10.80;;;;;;;21.81;72.45;97376.16;105498;1282;22566;-84
2022/08/19 04:34:37;;;;;;;12.20;10.20;;;;;;;21.86;72.57;97380.10;105483;1282;22583;-84
2022/08/19 04:37:26;;;;;;;13.90;10.70;;;;;;;21.90;72.62;97385.38;105488;1282;22692;-85
2022/08/19 04:42:53;;;;;;;12.50;11.20;;;;;;;21.96;72.21;97395.26;105503;1282;22586;-85
2022/08/19 04:45:21;;;;;;;14.20;12.10;;;;;;;21.98;72.25;97391.59;105440;1284;24216;-83
2022/08/19 04:47:56;;;;;;;13.00;11.70;;;;;;;22.01;72.19;97398.64;105403;1282;22541;-84
2022/08/19 04:50:44;;;;;;;18.10;11.20;;;;;;;22.05;72.29;97410.04;105337;1282;22546;-83
2022/08/19 04:53:12;;;;;;;11.90;10.70;;;;;;;22.10;72.35;97407.77;105522;1282;24259;-83
2022/08/19 04:55:41;;;;;;;12.90;11.50;;;;;;;22.18;72.43;97405.16;105496;1282;24375;-85
2022/08/19 04:58:10;;;;;;;14.50;11.50;;;;;;;22.23;72.27;97405.81;105475;1284;25328;-84
2022/08/19 05:00:39;;;;;;;13.60;11.40;;;;;;;22.30;72.18;97414.06;105487;1282;26704;-84
2022/08/19 05:03:08;;;;;;;15.00;11.50;;;;;;;22.37;72.02;97416.04;105556;1282;22667;-83
2022/08/19 05:05:42;;;;;;;14.00;10.50;;;;;;;22.47;72.06;97412.06;105464;1282;22695;-84
2022/08/19 05:08:18;;;;;;;13.70;10.80;;;;;;;22.58;71.80;97412.95;105555;1282;22567;-83
2022/08/19 05:10:58;;;;;;;11.90;10.80;;;;;;;22.74;71.73;97411.48;105526;1282;22537;-84
2022/08/19 05:13:26;;;;;;;12.50;10.30;;;;;;;22.87;71.67;97405.36;105455;1282;22716;-84
2022/08/19 05:15:59;;;;;;;14.20;10.50;;;;;;;22.99;71.35;97404.85;105426;1284;22712;-83
2022/08/19 05:24:08;;;;;;;12.40;10.10;;;;;;;23.27;70.53;97405.45;105466;1283;23585;-83
2022/08/19 05:26:38;;;;;;;13.10;10.50;;;;;;;23.32;70.22;97408.20;105478;1282;22559;-83
2022/08/19 05:29:09;;;;;;;11.70;9.60;;;;;;;23.36;70.03;97399.72;105565;1282;22682;-83
2022/08/19 05:31:41;;;;;;;13.00;10.60;;;;;;;23.42;69.94;97394.45;105536;1284;25299;-85
2022/08/19 05:34:10;;;;;;;12.60;9.70;;;;;;;23.51;69.76;97399.37;105475;1284;24227;-83
2022/08/19 05:36:48;;;;;;;14.60;10.30;;;;;;;23.58;69.35;97402.10;105502;1284;25415;-83
2022/08/19 05:39:20;;;;;;;12.00;10.10;;;;;;;23.66;69.25;97402.17;105521;1284;23284;-83
2022/08/19 05:41:53;;;;;;;14.30;11.20;;;;;;;23.77;68.82;97402.23;105450;1283;25331;-83
2022/08/19 05:44:21;;;;;;;12.20;10.20;;;;;;;23.89;68.63;97403.53;105495;1282;22765;-84
2022/08/19 05:46:52;;;;;;;16.30;10.50;;;;;;;24.00;68.37;97407.96;105465;1284;25358;-84
2022/08/19 05:49:22;;;;;;;15.90;10.40;;;;;;;24.11;67.64;97415.23;105652;1284;24387;-84
2022/08/19 05:51:51;;;;;;;13.60;11.40;;;;;;;24.19;67.72;97416.36;105356;1284;22581;-84
2022/08/19 05:54:19;;;;;;;14.20;10.10;;;;;;;24.29;67.61;97412.63;105473;1282;25541;-84
2022/08/19 05:56:47;;;;;;;12.90;9.60;;;;;;;24.39;67.40;97420.45;105453;1284;22619;-84
2022/08/19 05:59:17;;;;;;;13.00;10.20;;;;;;;24.45;67.15;97420.28;105442;1284;23485;-82
2022/08/19 06:01:52;;;;;;;15.50;10.80;;;;;;;24.50;66.88;97413.80;105485;1284;22629;-83
2022/08/19 06:04:20;;;;;;;13.10;10.40;;;;;;;24.57;66.65;97420.69;105249;1286;25108;-83
2022/08/19 06:06:53;;;;;;;11.60;9.80;;;;;;;24.61;66.69;97419.38;105474;1284;22701;-82
2022/08/19 06:09:22;;;;;;;13.60;10.40;;;;;;;24.67;66.48;97419.98;105262;1286;22571;-83
2022/08/19 06:11:59;;;;;;;15.60;9.80;;;;;;;24.73;66.16;97418.22;105244;1284;23201;-83
2022/08/19 06:14:30;;;;;;;12.80;10.00;;;;;;;24.79;66.05;97417.15;105411;1283;22721;-83
2022/08/19 06:17:01;;;;;;;24.50;10.10;;;;;;;24.83;65.72;97418.07;105632;1284;25444;-83
2022/08/19 06:19:34;;;;;;;15.70;10.80;;;;;;;24.87;65.81;97416.77;105617;1284;23326;-83
2022/08/19 06:22:08;;;;;;;14.80;10.00;;;;;;;24.94;65.67;97421.30;105655;1284;24233;-86
2022/08/19 06:24:35;;;;;;;16.80;10.60;;;;;;;25.02;65.39;97424.77;105528;1284;22545;-86
2022/08/19 06:27:05;;;;;;;13.20;10.50;;;;;;;25.08;65.01;97431.18;105627;1284;22728;-83
2022/08/19 06:29:34;;;;;;;12.80;9.70;;;;;;;25.14;65.05;97439.41;105400;1284;25333;-84
2022/08/19 06:32:03;;;;;;;12.20;10.20;;;;;;;25.23;64.92;97437.23;105557;1284;22561;-85
2022/08/19 06:34:34;;;;;;;11.20;9.40;;;;;;;25.36;64.38;97440.66;105608;1283;25249;-84
2022/08/19 06:37:02;;;;;;;12.20;10.30;;;;;;;25.44;64.46;97442.00;105549;1284;23966;-85
2022/08/19 06:39:33;;;;;;;12.50;9.70;;;;;;;25.54;64.29;97444.20;105641;1284;24979;-85
2022/08/19 06:42:06;;;;;;;16.20;9.70;;;;;;;25.65;64.06;97445.35;105708;1283;22580;-83
2022/08/19 06:44:40;;;;;;;11.50;9.90;;;;;;;25.75;63.95;97445.63;105516;1284;22709;-84
2022/08/19 06:47:14;;;;;;;11.00;9.40;;;;;;;25.84;63.47;97445.48;105767;1283;24324;-84
2022/08/19 06:50:02;;;;;;;14.90;10.00;;;;;;;25.86;63.36;97444.85;105926;1283;24231;-85
2022/08/19 06:52:33;;;;;;;13.50;10.30;;;;;;;25.86;63.02;97445.88;106379;1284;22726;-81
2022/08/19 06:55:09;;;;;;;16.80;10.10;;;;;;;25.93;63.05;97453.20;106044;1283;22649;-85
2022/08/19 06:57:37;;;;;;;13.40;9.90;;;;;;;26.06;63.02;97456.13;105941;1282;24219;-85
2022/08/19 07:00:11;;;;;;;16.80;9.90;;;;;;;26.20;62.88;97457.23;105931;1282;23261;-84
2022/08/19 07:02:42;;;;;;;14.90;9.90;;;;;;;26.36;62.74;97456.63;105821;1282;23936;-85
2022/08/19 07:05:23;;;;;;;13.90;9.90;;;;;;;26.53;62.48;97463.23;106178;1281;24371;-83
2022/08/19 07:07:50;;;;;;;14.10;10.10;;;;;;;26.60;62.00;97466.13;105933;1281;23889;-84
2022/08/19 07:10:19;;;;;;;16.20;9.50;;;;;;;26.61;61.57;97465.96;105878;1281;22474;-85
2022/08/19 07:12:48;;;;;;;22.80;11.00;;;;;;;26.62;61.24;97465.31;105665;1281;26527;-79
2022/08/19 07:15:17;;;;;;;13.70;9.60;;;;;;;26.60;61.21;97463.30;105908;1281;25239;-83
2022/08/19 07:17:47;;;;;;;15.20;9.50;;;;;;;26.65;61.46;97465.73;106082;1281;23320;-82
2022/08/19 07:20:19;;;;;;;14.10;9.50;;;;;;;26.74;60.88;97467.90;105923;1281;22805;-83
2022/08/19 07:22:47;;;;;;;11.30;9.20;;;;;;;26.85;60.82;97467.52;106625;1281;22783;-84
2022/08/19 07:25:18;;;;;;;13.20;9.00;;;;;;;27.01;60.79;97476.13;106268;1281;25361;-83
2022/08/19 07:27:50;;;;;;;13.00;10.00;;;;;;;27.15;60.29;97480.04;106540;1281;22683;-86
2022/08/19 07:30:22;;;;;;;13.70;9.10;;;;;;;27.25;59.81;97483.75;106544;1281;26483;-86
2022/08/19 07:32:53;;;;;;;17.40;9.50;;;;;;;27.31;59.90;97485.73;106385;1281;23943;-86
2022/08/19 07:35:21;;;;;;;11.20;9.30;;;;;;;27.44;59.72;97486.77;106943;1281;22772;-85
2022/08/19 07:37:49;;;;;;;11.40;9.50;;;;;;;27.57;59.81;97483.05;107878;1281;23252;-85
2022/08/19 07:44:05;;;;;;;13.60;8.40;;;;;;;28.01;59.22;97481.57;105718;1281;22570;-85
2022/08/19 07:46:36;;;;;;;12.10;8.70;;;;;;;28.20;59.21;97484.45;105535;1281;22759;-86
2022/08/19 07:49:06;;;;;;;13.50;8.90;;;;;;;28.38;59.11;97484.89;105722;1281;24006;-87
2022/08/19 07:51:35;;;;;;;15.40;9.20;;;;;;;28.56;58.72;97489.05;105675;1281;25356;-86
2022/08/19 07:54:04;;;;;;;13.00;8.50;;;;;;;28.74;57.68;97493.34;105635;1281;23846;-83
2022/08/19 07:56:32;;;;;;;13.30;9.70;;;;;;;28.88;57.53;97497.77;105544;1281;22666;-84
2022/08/19 07:59:00;;;;;;;10.70;8.30;;;;;;;29.04;57.69;97498.86;105845;1281;23843;-92
2022/08/19 08:01:28;;;;;;;12.10;8.80;;;;;;;29.23;57.32;97502.70;106095;1281;25458;-89
2022/08/19 08:09:36;;;;;;;12.90;8.50;;;;;;;29.54;56.66;97507.48;105734;1281;22700;-84
2022/08/19 08:12:10;;;;;;;15.20;8.60;;;;;;;29.55;56.69;97507.70;105627;1281;23244;-86
2022/08/19 08:15:04;;;;;;;12.30;8.80;;;;;;;29.55;56.10;97510.48;105690;1281;22496;-85
2022/08/19 08:17:36;;;;;;;12.00;8.10;;;;;;;29.63;56.31;97511.89;105677;1281;25726;-85
2022/08/19 08:20:19;;;;;;;15.10;8.40;;;;;;;29.72;56.25;97522.63;105453;1281;24250;-85
2022/08/19 08:25:35;;;;;;;9.50;7.90;;;;;;;29.89;55.10;97524.88;105634;1281;25417;-87
2022/08/19 08:28:04;;;;;;;16.70;8.00;;;;;;;29.98;54.38;97526.38;105418;1281;22547;-86
2022/08/19 08:30:34;;;;;;;9.70;8.20;;;;;;;30.04;54.44;97521.95;105557;1281;22566;-85
2022/08/19 08:33:03;;;;;;;15.80;8.20;;;;;;;30.20;54.17;97524.46;105554;1281;22540;-86
2022/08/19 08:35:31;;;;;;;11.60;7.90;;;;;;;30.35;54.03;97526.51;105605;1281;23982;-86
2022/08/19 08:37:59;;;;;;;11.50;8.20;;;;;;;30.55;54.09;97522.63;105519;1281;25314;-84
2022/08/19 08:40:44;;;;;;;11.20;8.10;;;;;;;30.72;53.80;97522.67;105558;1281;23405;-86
2022/08/19 08:43:35;;;;;;;15.90;8.00;;;;;;;30.86;53.75;97520.70;105459;1282;25968;-84
2022/08/19 08:46:09;;;;;;;14.30;7.70;;;;;;;30.95;53.51;97515.31;105519;1281;22566;-85
2022/08/19 08:48:55;;;;;;;9.80;7.60;;;;;;;31.09;53.33;97507.42;105349;1281;24201;-85
2022/08/19 08:51:27;;;;;;;11.30;7.70;;;;;;;31.27;52.70;97507.88;105598;1281;22578;-86
2022/08/19 08:54:06;;;;;;;18.30;7.00;;;;;;;31.38;51.02;97503.57;105248;1281;22891;-85
2022/08/19 08:56:43;;;;;;;17.20;6.90;;;;;;;31.53;50.76;97505.25;105296;1281;22729;-86
2022/08/19 08:59:39;;;;;;;17.50;6.20;;;;;;;31.64;49.38;97502.63;105472;1281;25357;-85
2022/08/19 09:02:08;;;;;;;10.60;6.30;;;;;;;31.80;48.06;97502.17;105449;1281;24265;-85
2022/08/19 09:04:37;;;;;;;11.90;6.80;;;;;;;31.94;47.91;97499.56;105884;1281;22959;-87
2022/08/19 09:07:23;;;;;;;11.70;6.50;;;;;;;32.08;47.09;97499.88;105707;1281;25309;-87
2022/08/19 09:10:26;;;;;;;15.30;5.80;;;;;;;32.26;45.91;97492.70;105644;1281;22863;-87
2022/08/19 09:12:56;;;;;;;12.50;5.70;;;;;;;32.40;43.77;97492.76;105480;1282;22556;-86
2022/08/19 09:15:34;;;;;;;10.10;5.60;;;;;;;32.45;43.55;97491.59;105523;1282;25557;-87
2022/08/19 09:18:06;;;;;;;10.50;5.40;;;;;;;32.49;42.53;97496.89;105665;1281;23375;-87
2022/08/19 09:20:34;;;;;;;9.90;5.40;;;;;;;32.51;42.55;97487.27;105513;1281;24348;-87
2022/08/19 09:23:03;;;;;;;11.60;5.60;;;;;;;32.54;42.42;97483.64;105471;1283;22537;-88
2022/08/19 09:25:34;;;;;;;11.10;6.30;;;;;;;32.62;42.33;97482.15;105503;1284;24293;-87
2022/08/19 09:28:03;;;;;;;12.90;5.40;;;;;;;32.66;40.83;97482.41;105536;1281;24310;-87
2022/08/19 09:30:39;;;;;;;14.30;6.20;;;;;;;32.65;40.45;97485.08;105412;1282;22617;-88
2022/08/19 09:33:07;;;;;;;11.80;5.50;;;;;;;32.70;40.74;97484.09;105418;1281;22576;-87
2022/08/19 09:35:56;;;;;;;13.60;5.00;;;;;;;32.87;40.59;97487.33;105538;1282;23233;-88
2022/08/19 09:40:02;;;;;;;10.10;5.50;;;;;;;33.13;40.71;97483.86;105592;1281;22581;-88
2022/08/19 09:42:52;;;;;;;9.50;5.60;;;;;;;33.37;39.82;97483.38;105060;1287;22546;-87
2022/08/19 09:45:52;;;;;;;11.70;5.10;;;;;;;33.42;39.39;97484.48;105272;1287;24581;-87
2022/08/19 09:48:21;;;;;;;10.20;5.20;;;;;;;33.61;40.11;97477.82;104919;1287;22760;-86
2022/08/19 09:50:51;;;;;;;13.40;5.30;;;;;;;33.81;39.36;97480.11;105267;1287;22538;-86
2022/08/19 09:53:22;;;;;;;9.00;5.00;;;;;;;33.85;39.34;97478.09;104220;1287;1512960;-86
2022/08/19 09:55:55;;;;;;;12.10;5.80;;;;;;;33.93;38.51;97478.15;105254;1287;22549;-84
2022/08/19 09:58:27;;;;;;;17.80;5.80;;;;;;;33.92;37.44;97481.39;105159;1287;22770;-84
2022/08/19 10:00:58;;;;;;;19.20;5.80;;;;;;;33.84;37.89;97475.27;105268;1287;22560;-83
2022/08/19 10:03:27;;;;;;;17.20;6.50;;;;;;;33.88;37.85;97474.05;105203;1287;24234;-85
2022/08/19 10:05:59;;;;;;;13.50;6.40;;;;;;;33.92;37.08;97473.77;105061;1287;24302;-85
2022/08/19 10:08:31;;;;;;;14.50;6.10;;;;;;;33.79;36.73;97476.05;105313;1287;25351;-85
2022/08/19 10:11:01;;;;;;;24.40;7.60;;;;;;;33.56;36.53;97477.80;105003;1287;25256;-89
2022/08/19 10:13:49;;;;;;;28.70;7.20;;;;;;;33.31;36.70;97480.34;105420;1283;22742;-85
2022/08/19 10:16:22;;;;;;;15.70;6.40;;;;;;;33.20;37.27;97483.14;105610;1282;22731;-86
2022/08/19 10:18:59;;;;;;;9.70;5.60;;;;;;;33.28;37.43;97483.33;105834;1282;22573;-84
2022/08/19 10:21:34;;;;;;;14.60;5.90;;;;;;;33.33;36.66;97489.45;105494;1283;22701;-86
2022/08/19 10:24:04;;;;;;;14.20;5.90;;;;;;;33.39;36.62;97489.42;105536;1283;22627;-87
2022/08/19 10:26:36;;;;;;;12.30;5.90;;;;;;;33.54;37.17;97485.46;105409;1282;22894;-85
2022/08/19 10:29:05;;;;;;;16.00;6.20;;;;;;;33.82;36.57;97485.08;105556;1282;22862;-85
2022/08/19 10:31:36;;;;;;;14.40;6.90;;;;;;;34.04;36.50;97481.60;105543;1282;23553;-86
2022/08/19 10:34:24;;;;;;;13.30;6.30;;;;;;;34.16;36.37;97475.10;105602;1282;22707;-84
2022/08/19 10:36:57;;;;;;;12.80;6.50;;;;;;;34.34;36.33;97469.38;105528;1282;22553;-84
2022/08/19 10:39:31;;;;;;;13.70;6.40;;;;;;;34.56;36.43;97472.48;105568;1282;25303;-86
2022/08/19 10:42:12;;;;;;;13.20;5.30;;;;;;;34.68;35.49;97472.33;105766;1282;25366;-85
2022/08/19 10:44:41;;;;;;;18.20;5.40;;;;;;;34.71;35.28;97471.17;105678;1282;25297;-85
2022/08/19 10:47:10;;;;;;;12.90;5.30;;;;;;;34.72;34.25;97475.67;105655;1282;22714;-85
2022/08/19 10:52:45;;;;;;;13.90;5.30;;;;;;;34.61;34.54;97475.15;105638;1282;22632;-86
2022/08/19 10:58:13;;;;;;;20.40;5.60;;;;;;;34.60;34.20;97471.89;105494;1282;25306;-86
2022/08/19 11:00:43;;;;;;;12.30;5.20;;;;;;;34.75;33.81;97477.86;105521;1284;22584;-86
2022/08/19 11:03:12;;;;;;;13.70;5.70;;;;;;;34.92;33.97;97470.78;105577;1283;22859;-87
2022/08/19 11:05:40;;;;;;;18.60;5.70;;;;;;;35.05;32.83;97467.23;105629;1282;22546;-87
2022/08/19 11:08:12;;;;;;;18.70;5.40;;;;;;;34.99;33.08;97459.48;105658;1282;25322;-86
2022/08/19 11:10:57;;;;;;;16.10;5.30;;;;;;;34.91;32.45;97453.09;105659;1282;22556;-86
2022/08/19 11:13:25;;;;;;;19.60;5.40;;;;;;;34.78;32.71;97451.22;105645;1282;22557;-86
2022/08/19 11:16:01;;;;;;;15.90;5.70;;;;;;;34.85;33.08;97449.70;105785;1281;22566;-85
2022/08/19 11:18:42;;;;;;;11.40;5.30;;;;;;;35.10;33.41;97452.77;105592;1281;24418;-84
2022/08/19 11:21:20;;;;;;;14.50;5.00;;;;;;;35.27;32.82;97450.61;105580;1281;24126;-85
2022/08/19 11:23:51;;;;;;;11.80;4.90;;;;;;;35.34;33.04;97450.15;105824;1281;22607;-85
2022/08/19 11:26:21;;;;;;;12.50;5.60;;;;;;;35.48;32.45;97443.36;105703;1281;25245;-85
2022/08/19 11:28:54;;;;;;;13.40;5.30;;;;;;;35.43;31.84;97444.13;105689;1281;25308;-85
2022/08/19 11:31:27;;;;;;;17.80;5.60;;;;;;;35.37;32.38;97440.54;105800;1281;22867;-86
2022/08/19 11:33:56;;;;;;;;;;;;;;;35.55;32.31;97442.08;105794;1281;25314;-84
2022/08/19 11:36:25;;;;;;;11.40;5.30;;;;;;;35.72;32.35;97439.19;105751;1281;24288;-85
2022/08/19 11:38:54;;;;;;;17.80;5.90;;;;;;;35.85;31.93;97431.95;105796;1281;22541;-85
2022/08/19 11:41:23;;;;;;;16.00;5.80;;;;;;;35.93;31.45;97437.48;105597;1281;24369;-85
2022/08/19 11:43:53;;;;;;;12.90;5.20;;;;;;;35.74;31.58;97436.77;105690;1281;24347;-85
2022/08/19 11:46:24;;;;;;;17.60;5.80;;;;;;;35.61;32.11;97430.98;105903;1281;24353;-85
2022/08/19 11:48:53;;;;;;;12.60;5.00;;;;;;;35.74;31.91;97434.54;105821;1281;22582;-88
2022/08/19 11:51:24;;;;;;;13.00;5.20;;;;;;;35.91;32.02;97431.75;105528;1281;22562;-84
2022/08/19 11:53:54;;;;;;;15.10;5.20;;;;;;;36.14;31.96;97434.89;105838;1281;25305;-84
2022/08/19 11:56:23;;;;;;;11.90;5.00;;;;;;;36.37;32.16;97439.98;105483;1281;22703;-84
2022/08/19 11:58:53;;;;;;;12.60;6.30;;;;;;;36.58;31.24;97442.02;105817;1281;22826;-85
2022/08/19 12:01:25;;;;;;;12.90;5.60;;;;;;;36.37;31.55;97446.02;105721;1281;23977;-85
2022/08/19 12:03:55;;;;;;;15.50;5.90;;;;;;;36.44;32.17;97452.56;106197;1281;23863;-85